Time;durP1;ratioP1;P1;durP2;ratioP2;P2;SDS_P1;SDS_P2;PMS_P1;PMS_P2;Temp;Humidity;BMP_temperature;BMP_pressure;BME280_temperature;BME280_humidity;BME280_pressure;Samples;Min_cycle;Max_cycle;Signal;HPM_P1;HPM_P2
2022/05/23 00:02:19;;;;;;;2.15;1.50;;;;;;;23.29;40.78;100177.47;1830010;78;20933;-79
2022/05/23 00:04:46;;;;;;;2.20;1.50;;;;;;;23.29;40.81;100173.31;1829710;77;20996;-79
2022/05/23 00:07:29;;;;;;;2.00;1.50;;;;;;;23.29;40.81;100173.31;1830143;78;21028;-79
2022/05/23 00:09:56;;;;;;;2.10;1.90;;;;;;;23.29;40.80;100171.92;1829947;78;21605;-79
2022/05/23 00:12:22;;;;;;;2.77;1.32;;;;;;;23.28;40.80;100164.17;1830242;78;21064;-79
2022/05/23 00:14:50;;;;;;;2.72;1.47;;;;;;;23.29;40.79;100165.80;1833875;78;21234;-79
2022/05/23 00:17:16;;;;;;;2.27;1.57;;;;;;;23.28;40.76;100152.25;1829712;77;20981;-79
2022/05/23 00:19:42;;;;;;;1.77;1.35;;;;;;;23.28;40.79;100151.68;1830136;77;21018;-79
2022/05/23 00:22:09;;;;;;;1.80;1.20;;;;;;;23.28;40.81;100153.64;1830359;77;21009;-79
2022/05/23 00:24:35;;;;;;;1.70;1.22;;;;;;;23.27;40.83;100152.02;1829489;78;21025;-79
2022/05/23 00:27:02;;;;;;;1.92;1.62;;;;;;;23.27;40.86;100148.67;1830107;78;21587;-79
2022/05/23 00:29:28;;;;;;;3.15;1.50;;;;;;;23.27;40.94;100154.22;1830150;77;21037;-79
2022/05/23 00:37:24;;;;;;;2.30;1.65;;;;;;;23.27;41.04;100161.73;1829855;78;21045;-79
2022/05/23 00:39:50;;;;;;;1.60;1.32;;;;;;;23.27;41.10;100165.90;1829887;78;21219;-79
2022/05/23 00:45:08;;;;;;;2.30;1.67;;;;;;;23.26;41.14;100170.63;1817848;78;21719;-79
2022/05/23 00:47:34;;;;;;;2.65;1.60;;;;;;;23.26;41.17;100170.63;1818474;78;21011;-79
2022/05/23 00:50:01;;;;;;;2.22;1.60;;;;;;;23.25;41.22;100171.00;1802561;77;21055;-79
2022/05/23 00:52:40;;;;;;;2.30;1.75;;;;;;;23.26;41.26;100176.19;1852571;77;21964;-79
2022/05/23 00:55:13;;;;;;;2.15;1.32;;;;;;;23.24;41.28;100167.42;1852052;77;21016;-79
2022/05/23 00:57:43;;;;;;;2.37;1.50;;;;;;;23.26;41.32;100163.70;1846529;77;21295;-79
2022/05/23 01:00:10;;;;;;;1.70;1.50;;;;;;;23.26;41.34;100167.05;1851345;77;21052;-79
2022/05/23 01:02:36;;;;;;;2.85;1.50;;;;;;;23.25;41.36;100166.84;1846845;77;21083;-79
2022/05/23 01:05:08;;;;;;;3.40;1.77;;;;;;;23.26;41.35;100160.11;1850716;77;21447;-79
2022/05/23 01:07:34;;;;;;;2.20;1.57;;;;;;;23.25;41.35;100147.42;1846914;77;21566;-79
2022/05/23 01:10:01;;;;;;;1.60;1.30;;;;;;;23.26;41.35;100148.44;1846634;77;21052;-79
2022/05/23 01:12:27;;;;;;;1.90;1.50;;;;;;;23.23;41.38;100154.70;1846955;77;21577;-79
2022/05/23 01:14:58;;;;;;;2.15;1.62;;;;;;;23.24;41.42;100154.93;1850954;77;21087;-79
2022/05/23 01:17:25;;;;;;;1.70;1.40;;;;;;;23.24;41.42;100160.48;1846962;77;21198;-79
2022/05/23 01:19:51;;;;;;;2.77;1.57;;;;;;;23.23;41.45;100154.70;1846425;77;21068;-79
2022/05/23 01:22:38;;;;;;;1.57;1.30;;;;;;;23.23;41.45;100166.61;1847082;77;21667;-79
2022/05/23 01:25:27;;;;;;;1.30;1.20;;;;;;;23.23;41.44;100166.61;1846478;77;22171;-79
2022/05/23 01:27:53;;;;;;;2.70;1.70;;;;;;;23.23;41.43;100169.38;1847138;77;20998;-79
2022/05/23 01:30:20;;;;;;;1.57;1.42;;;;;;;23.23;41.43;100168.57;1846625;77;21095;-79
2022/05/23 01:32:46;;;;;;;1.92;1.70;;;;;;;23.23;41.45;100169.95;1846907;77;21028;-79
2022/05/23 01:35:13;;;;;;;1.70;1.60;;;;;;;23.22;41.45;100161.39;1846562;77;21020;-79
2022/05/23 01:37:39;;;;;;;2.15;1.62;;;;;;;23.22;41.44;100158.63;1846573;77;21083;-79
2022/05/23 01:40:09;;;;;;;1.67;1.30;;;;;;;23.23;41.48;100160.25;1847179;77;20982;-79
2022/05/23 01:42:35;;;;;;;2.20;1.70;;;;;;;23.22;41.49;100161.39;1847148;77;21115;-79
2022/05/23 01:45:02;;;;;;;2.55;1.47;;;;;;;23.22;41.49;100168.33;1846274;77;21044;-79
2022/05/23 01:47:28;;;;;;;1.22;1.12;;;;;;;23.22;41.49;100173.88;1846744;77;21071;-79
2022/05/23 01:49:54;;;;;;;1.98;1.57;;;;;;;23.23;41.48;100175.51;1846845;77;21005;-79
2022/05/23 01:52:20;;;;;;;1.85;1.40;;;;;;;23.22;41.49;100171.92;1846871;77;21515;-79
2022/05/23 01:54:47;;;;;;;1.65;1.40;;;;;;;23.22;41.48;100173.88;1846618;77;21498;-79
2022/05/23 01:57:13;;;;;;;2.80;1.50;;;;;;;23.22;41.48;100175.27;1846758;77;21020;-79
2022/05/23 02:02:25;;;;;;;1.70;1.47;;;;;;;23.21;41.46;100175.84;1846951;77;21017;-78
2022/05/23 02:04:54;;;;;;;3.70;1.45;;;;;;;23.22;41.45;100184.98;1846393;77;20994;-78
2022/05/23 02:07:21;;;;;;;1.77;1.40;;;;;;;23.21;41.48;100184.78;1846844;77;21227;-78
2022/05/23 02:09:53;;;;;;;1.75;1.37;;;;;;;23.21;41.45;100180.02;1846813;77;21021;-78
2022/05/23 02:12:19;;;;;;;1.80;1.40;;;;;;;23.20;41.44;100180.38;1846995;77;21033;-78
2022/05/23 02:14:47;;;;;;;1.98;1.60;;;;;;;23.20;41.45;100179.80;1823119;77;21067;-78
2022/05/23 02:17:13;;;;;;;3.25;1.50;;;;;;;23.20;41.44;100183.97;1846966;77;21055;-78
2022/05/23 02:19:40;;;;;;;2.10;1.42;;;;;;;23.20;41.45;100186.75;1846851;77;21613;-78
2022/05/23 02:22:06;;;;;;;1.75;1.45;;;;;;;23.19;41.42;100182.34;1846922;77;21021;-78
2022/05/23 02:24:32;;;;;;;1.55;1.30;;;;;;;23.20;41.43;100188.13;1823207;77;21111;-78
2022/05/23 02:26:59;;;;;;;1.82;1.40;;;;;;;23.19;41.42;100182.34;1846504;77;21029;-78
2022/05/23 02:29:25;;;;;;;1.57;1.30;;;;;;;23.19;41.42;100187.89;1846761;77;21027;-78
2022/05/23 02:31:52;;;;;;;2.08;1.45;;;;;;;23.20;41.43;100184.55;1847008;77;21215;-78
2022/05/23 02:34:18;;;;;;;1.50;1.20;;;;;;;23.20;41.44;100187.31;1846175;77;21696;-78
2022/05/23 02:36:45;;;;;;;2.35;1.37;;;;;;;23.19;41.42;100181.53;1846899;77;20997;-78
2022/05/23 02:39:12;;;;;;;2.05;1.47;;;;;;;23.19;41.42;100182.34;1846655;77;22135;-78
2022/05/23 02:41:38;;;;;;;1.70;1.30;;;;;;;23.19;41.42;100179.57;1846800;77;21063;-78
2022/05/23 02:44:05;;;;;;;1.55;1.30;;;;;;;23.19;41.40;100180.95;1850583;77;21214;-78
2022/05/23 02:46:31;;;;;;;1.72;1.37;;;;;;;23.21;41.39;100182.00;1846782;77;21053;-78
2022/05/23 02:48:57;;;;;;;1.40;1.25;;;;;;;23.19;41.39;100187.08;1846534;77;21253;-78
2022/05/23 02:51:24;;;;;;;2.22;1.27;;;;;;;23.19;41.39;100187.08;1851027;77;21036;-78
2022/05/23 02:53:51;;;;;;;1.52;1.30;;;;;;;23.19;41.38;100189.28;1846963;77;21055;-78
2022/05/23 02:56:17;;;;;;;2.05;1.60;;;;;;;23.19;41.37;100191.24;1846486;77;21155;-78
2022/05/23 02:58:44;;;;;;;1.85;1.50;;;;;;;23.19;41.37;100194.02;1846812;77;21084;-78
2022/05/23 03:01:11;;;;;;;2.52;1.30;;;;;;;23.17;41.38;100190.20;1846955;77;21076;-78
2022/05/23 03:03:39;;;;;;;1.92;1.30;;;;;;;23.19;41.34;100189.28;1846406;77;20973;-78
2022/05/23 03:06:05;;;;;;;1.62;1.20;;;;;;;23.19;41.36;100192.63;1823784;77;21047;-78
2022/05/23 03:08:32;;;;;;;1.98;1.60;;;;;;;23.19;41.33;100187.08;1846812;77;20972;-78
2022/05/23 03:11:00;;;;;;;1.40;1.17;;;;;;;23.18;41.35;100186.84;1846502;77;21021;-78
2022/05/23 03:13:27;;;;;;;1.67;1.30;;;;;;;23.18;41.33;100188.23;1846707;77;20949;-78
2022/05/23 03:15:53;;;;;;;1.82;1.40;;;;;;;23.18;41.33;100192.40;1846820;77;21119;-78
2022/05/23 03:18:20;;;;;;;2.12;1.37;;;;;;;23.17;41.31;100187.42;1846555;77;21617;-78
2022/05/23 03:20:47;;;;;;;1.80;1.47;;;;;;;23.18;41.32;100188.23;1846370;77;21083;-78
2022/05/23 03:28:43;;;;;;;2.87;1.40;;;;;;;23.17;41.28;100187.42;1846460;77;21514;-78
2022/05/23 03:31:09;;;;;;;2.20;1.45;;;;;;;23.16;41.27;100187.22;1846592;77;21044;-78
2022/05/23 03:33:36;;;;;;;1.50;1.22;;;;;;;23.17;41.27;100188.81;1846633;77;21013;-78
2022/05/23 03:36:03;;;;;;;1.60;1.50;;;;;;;23.16;41.27;100188.60;1846535;77;20950;-78
2022/05/23 03:38:29;;;;;;;3.15;1.45;;;;;;;23.16;41.26;100191.95;1822928;77;21028;-78
2022/05/23 03:40:56;;;;;;;2.65;1.32;;;;;;;23.16;41.25;100191.95;1847032;77;21016;-78
2022/05/23 03:43:22;;;;;;;1.77;1.30;;;;;;;23.16;41.25;100194.16;1843443;77;21247;-78
2022/05/23 03:45:48;;;;;;;1.65;1.20;;;;;;;23.16;41.24;100196.11;1834816;77;21095;-78
2022/05/23 03:48:15;;;;;;;2.27;1.20;;;;;;;23.16;41.25;100191.95;1829948;77;21013;-78
2022/05/23 03:50:42;;;;;;;1.22;1.00;;;;;;;23.16;41.24;100196.93;1830111;78;21175;-78
2022/05/23 03:53:08;;;;;;;2.15;1.22;;;;;;;23.15;41.24;100196.69;1829536;77;21029;-78
2022/05/23 03:55:35;;;;;;;1.77;1.27;;;;;;;23.15;41.21;100196.69;1830215;77;21380;-78
2022/05/23 03:58:02;;;;;;;2.22;1.57;;;;;;;23.15;41.20;100191.14;1830104;77;21123;-78
2022/05/23 04:00:28;;;;;;;2.65;1.55;;;;;;;23.15;41.19;100192.53;1829747;78;20997;-78
2022/05/23 04:02:55;;;;;;;1.57;1.30;;;;;;;23.17;41.17;100194.94;1829750;77;21016;-78
2022/05/23 04:05:27;;;;;;;1.87;1.20;;;;;;;23.15;41.12;100190.33;1807703;78;21544;-78
2022/05/23 04:07:53;;;;;;;3.25;1.30;;;;;;;23.14;41.08;100193.68;1829833;78;21017;-78
2022/05/23 04:10:20;;;;;;;1.75;1.15;;;;;;;23.14;41.07;100193.68;1829782;78;21129;-78
2022/05/23 04:12:46;;;;;;;2.00;1.42;;;;;;;23.13;41.07;100196.80;1830021;78;21073;-78
2022/05/23 04:15:13;;;;;;;3.35;1.42;;;;;;;23.14;41.08;100194.25;1829728;78;21030;-78
2022/05/23 04:17:39;;;;;;;2.20;1.40;;;;;;;23.13;41.06;100194.83;1829840;77;21005;-78
2022/05/23 04:20:08;;;;;;;2.75;1.40;;;;;;;23.12;41.07;100190.46;1829825;78;21040;-78
2022/05/23 04:22:35;;;;;;;4.97;1.52;;;;;;;23.11;41.04;100187.45;1829843;77;21564;-78
2022/05/23 04:25:03;;;;;;;5.80;1.62;;;;;;;23.11;41.04;100189.41;1829590;77;20982;-78
2022/05/23 04:27:30;;;;;;;5.30;1.90;;;;;;;23.10;41.02;100189.98;1804897;77;21002;-78
2022/05/23 04:29:56;;;;;;;4.40;1.60;;;;;;;23.10;40.99;100196.11;1817809;78;21050;-78
2022/05/23 04:35:13;;;;;;;5.95;1.60;;;;;;;23.10;41.23;100199.70;1828246;76;21218;-83
2022/05/23 04:37:44;;;;;;;7.08;1.60;;;;;;;23.08;41.10;100203.42;1834843;76;21026;-78
2022/05/23 04:40:14;;;;;;;3.20;1.67;;;;;;;23.08;41.00;100208.97;1765661;78;21250;-79
2022/05/23 04:42:40;;;;;;;7.40;1.82;;;;;;;23.06;40.93;100213.23;1751043;80;21086;-77
2022/05/23 04:45:09;;;;;;;3.27;2.17;;;;;;;23.03;40.87;100214.75;1760133;79;21056;-77
2022/05/23 04:50:20;;;;;;;5.47;1.80;;;;;;;22.98;40.45;100214.97;1761780;79;21042;-81
2022/05/23 04:52:56;;;;;;;9.18;2.12;;;;;;;22.94;40.31;100204.34;1765402;79;21032;-76
2022/05/23 04:55:27;;;;;;;8.53;2.42;;;;;;;22.92;40.21;100204.44;1748841;80;21077;-77
2022/05/23 04:57:59;;;;;;;10.75;2.83;;;;;;;22.91;40.13;100205.05;1752554;80;21046;-80
2022/05/23 05:00:26;;;;;;;5.17;2.37;;;;;;;22.90;39.98;100201.22;1745104;80;21105;-80
2022/05/23 05:02:54;;;;;;;7.78;2.42;;;;;;;22.89;39.79;100203.76;1799019;79;21495;-77
2022/05/23 05:05:20;;;;;;;10.43;2.58;;;;;;;22.88;39.70;100207.11;1794124;78;21042;-78
2022/05/23 05:07:47;;;;;;;14.13;2.90;;;;;;;22.87;39.62;100202.74;1798573;78;21551;-78
2022/05/23 05:10:13;;;;;;;10.85;2.90;;;;;;;22.88;39.61;100204.91;1803183;78;21069;-79
2022/05/23 05:12:39;;;;;;;21.10;4.10;;;;;;;22.88;39.61;100204.34;1777549;78;21013;-78
2022/05/23 05:15:08;;;;;;;12.30;4.37;;;;;;;22.90;39.56;100202.61;1795963;78;20949;-79
2022/05/23 05:17:34;;;;;;;13.62;4.90;;;;;;;22.90;39.54;100204.81;1792586;78;21038;-80
2022/05/23 05:20:00;;;;;;;19.73;7.25;;;;;;;22.91;39.54;100202.27;1786618;78;21080;-78
2022/05/23 05:22:27;;;;;;;10.72;5.12;;;;;;;22.94;39.46;100198.80;1753579;79;21025;-78
2022/05/23 05:24:53;;;;;;;8.95;3.98;;;;;;;22.95;39.46;100201.00;1838397;76;20994;-78
2022/05/23 05:27:20;;;;;;;11.53;3.65;;;;;;;22.97;39.62;100201.44;1836828;76;21060;-77
2022/05/23 05:29:46;;;;;;;13.20;4.00;;;;;;;22.99;39.84;100204.69;1834799;76;21006;-78
2022/05/23 05:32:30;;;;;;;11.18;4.25;;;;;;;23.01;39.95;100203.17;1840809;76;21071;-79
2022/05/23 05:35:00;;;;;;;9.28;3.98;;;;;;;23.02;39.85;100211.73;1841505;76;21489;-78
2022/05/23 05:37:32;;;;;;;12.43;4.65;;;;;;;23.01;39.80;100215.66;1830445;76;21214;-79
2022/05/23 05:39:58;;;;;;;8.00;4.12;;;;;;;23.03;39.82;100219.48;1832411;76;21048;-78
2022/05/23 05:42:34;;;;;;;8.73;3.85;;;;;;;23.02;39.78;100215.08;1833966;76;21036;-79
2022/05/23 05:45:06;;;;;;;11.60;3.45;;;;;;;23.00;39.66;100215.42;1829256;76;21405;-80
2022/05/23 05:47:34;;;;;;;6.55;2.87;;;;;;;22.98;39.60;100215.55;1833084;77;21017;-81
2022/05/23 05:50:06;;;;;;;8.15;2.00;;;;;;;22.95;39.55;100219.03;1815228;76;21844;-81
2022/05/23 05:52:33;;;;;;;10.23;2.75;;;;;;;22.92;39.34;100214.97;1771987;79;21055;-79
2022/05/23 05:54:59;;;;;;;10.58;2.42;;;;;;;22.89;39.35;100214.86;1823749;76;21525;-79
2022/05/23 05:57:25;;;;;;;7.25;2.08;;;;;;;22.85;39.30;100219.48;1836421;76;21083;-74
2022/05/23 05:59:52;;;;;;;8.43;2.00;;;;;;;22.79;39.30;100220.28;1814225;76;21028;-79
2022/05/23 06:02:19;;;;;;;9.45;2.05;;;;;;;22.73;39.23;100221.69;1805059;77;21191;-83
2022/05/23 06:04:46;;;;;;;8.20;2.77;;;;;;;22.68;39.43;100210.78;1834603;76;21114;-79
2022/05/23 06:12:59;;;;;;;19.27;4.58;;;;;;;22.78;39.72;100206.20;1781241;78;21495;-80
2022/05/23 06:15:32;;;;;;;29.20;5.95;;;;;;;22.82;39.77;100201.58;1831175;76;21534;-81
2022/05/23 06:17:59;;;;;;;17.05;4.47;;;;;;;22.86;39.80;100208.62;1831085;76;21034;-82
2022/05/23 06:20:25;;;;;;;21.52;6.03;;;;;;;22.87;39.86;100201.92;1803463;77;21705;-81
2022/05/23 06:22:51;;;;;;;19.82;5.53;;;;;;;22.88;39.89;100194.62;1831179;76;21638;-80
2022/05/23 06:25:18;;;;;;;10.43;4.00;;;;;;;22.91;39.87;100201.46;1826469;76;21057;-81
2022/05/23 06:27:44;;;;;;;11.40;4.15;;;;;;;22.91;39.93;100200.89;1829779;76;22088;-80
2022/05/23 06:30:13;;;;;;;13.22;4.35;;;;;;;22.93;39.96;100194.39;1832842;76;21011;-79
2022/05/23 06:32:41;;;;;;;11.45;3.42;;;;;;;22.96;39.91;100198.43;1813500;76;21338;-83
2022/05/23 06:35:09;;;;;;;11.30;3.55;;;;;;;22.96;39.92;100202.02;1821696;76;21462;-79
2022/05/23 06:37:40;;;;;;;8.05;2.77;;;;;;;22.98;39.89;100202.49;1821025;76;21001;-79
2022/05/23 06:40:08;;;;;;;10.05;2.52;;;;;;;22.99;39.91;100202.73;1828787;77;22310;-77
2022/05/23 06:42:37;;;;;;;6.85;2.87;;;;;;;23.00;39.95;100201.55;1834307;77;20981;-81
2022/05/23 06:45:04;;;;;;;10.68;3.20;;;;;;;23.03;39.99;100202.84;1828449;76;21649;-84
2022/05/23 06:47:30;;;;;;;11.48;4.17;;;;;;;23.05;40.05;100202.70;1827567;76;21045;-83
2022/05/23 06:49:56;;;;;;;12.90;3.67;;;;;;;23.06;40.00;100179.94;1835043;77;21060;-82
2022/05/23 06:52:28;;;;;;;17.32;3.37;;;;;;;23.06;40.11;100197.97;1827419;77;21279;-77
2022/05/23 06:54:54;;;;;;;24.15;3.60;;;;;;;23.06;40.18;100202.13;1813951;76;21139;-79
2022/05/23 06:57:21;;;;;;;23.12;3.10;;;;;;;23.07;40.19;100204.56;1804349;77;21698;-80
2022/05/23 06:59:47;;;;;;;20.12;3.30;;;;;;;23.08;40.20;100195.67;1829858;76;21028;-81
2022/05/23 07:02:15;;;;;;;17.87;2.58;;;;;;;23.07;40.24;100187.11;1819875;76;21619;-80
2022/05/23 07:12:57;;;;;;;14.70;4.78;;;;;;;23.08;40.35;100192.32;1761580;80;21097;-77
2022/05/23 07:15:23;;;;;;;16.65;4.00;;;;;;;23.10;40.49;100191.38;1820365;77;21060;-77
2022/05/23 07:17:50;;;;;;;20.17;4.58;;;;;;;23.12;40.61;100191.03;1760174;80;22341;-75
2022/05/23 07:20:16;;;;;;;20.52;4.30;;;;;;;23.15;40.72;100194.48;1825766;77;20961;-77
2022/05/23 07:22:42;;;;;;;19.77;5.50;;;;;;;23.17;40.75;100201.88;1827052;76;21041;-75
2022/05/23 07:25:13;;;;;;;20.65;5.85;;;;;;;23.17;40.81;100201.30;1826063;76;21056;-82
2022/05/23 07:27:39;;;;;;;21.10;5.87;;;;;;;23.19;40.81;100199.00;1828850;77;21067;-81
2022/05/23 07:30:07;;;;;;;19.42;6.70;;;;;;;23.21;40.84;100197.27;1829252;76;21218;-77
2022/05/23 07:32:33;;;;;;;16.90;6.92;;;;;;;23.22;40.83;100203.02;1822755;76;21060;-75
2022/05/23 07:34:59;;;;;;;20.97;6.97;;;;;;;23.22;40.88;100202.45;1833899;77;21127;-78
2022/05/23 07:37:27;;;;;;;13.78;6.47;;;;;;;23.23;40.90;100199.09;1831956;76;21022;-76
2022/05/23 07:40:00;;;;;;;15.28;6.60;;;;;;;23.25;40.96;100204.31;1767178;80;21072;-79
2022/05/23 07:42:28;;;;;;;21.00;7.50;;;;;;;23.25;40.98;100204.31;1831398;76;21644;-78
2022/05/23 07:44:54;;;;;;;17.90;7.17;;;;;;;23.27;41.01;100204.75;1831302;76;21068;-78
2022/05/23 07:47:21;;;;;;;16.20;6.45;;;;;;;23.26;41.07;100204.52;1826809;76;21048;-80
2022/05/23 07:49:50;;;;;;;21.25;5.95;;;;;;;23.27;41.12;100207.53;1824509;77;21036;-80
2022/05/23 07:52:16;;;;;;;29.98;6.85;;;;;;;23.28;41.20;100204.99;1824642;76;21056;-82
2022/05/23 08:02:55;;;;;;;27.58;3.92;;;;;;;23.30;42.11;100205.47;1777837;78;21501;-79
2022/05/23 08:05:21;;;;;;;27.82;4.42;;;;;;;23.31;42.26;100210.64;1785658;77;21015;-81
2022/05/23 08:07:48;;;;;;;31.42;6.05;;;;;;;23.31;42.25;100207.05;1827703;76;21143;-82
2022/05/23 08:10:14;;;;;;;29.52;12.13;;;;;;;23.31;42.26;100216.77;1830635;76;21067;-82
2022/05/23 08:12:40;;;;;;;30.17;9.18;;;;;;;23.31;42.26;100216.20;1821438;77;21637;-78
2022/05/23 08:15:08;;;;;;;25.52;11.45;;;;;;;23.31;42.29;100217.58;1819514;77;21000;-79
2022/05/23 08:17:34;;;;;;;18.27;9.18;;;;;;;23.32;42.29;100217.01;1824781;76;21087;-79
2022/05/23 08:20:01;;;;;;;26.25;9.48;;;;;;;23.31;42.34;100217.58;1828271;76;21606;-80
2022/05/23 08:22:27;;;;;;;22.67;9.05;;;;;;;23.34;42.44;100214.70;1809670;77;21142;-80
2022/05/23 08:24:56;;;;;;;23.42;7.53;;;;;;;23.35;42.64;100218.50;1807876;76;21033;-82
2022/05/23 08:27:25;;;;;;;21.62;9.70;;;;;;;23.38;42.71;100221.17;1821775;77;21061;-77
2022/05/23 08:29:53;;;;;;;28.20;11.70;;;;;;;23.38;42.71;100217.01;1835867;77;21049;-78
2022/05/23 08:32:20;;;;;;;27.55;11.78;;;;;;;23.39;42.73;100217.22;1832450;76;21053;-79
2022/05/23 08:34:49;;;;;;;26.25;13.18;;;;;;;23.38;42.70;100211.45;1831282;76;21029;-78
2022/05/23 08:37:16;;;;;;;24.77;13.05;;;;;;;23.39;42.61;100222.77;1820031;77;21159;-78
2022/05/23 08:39:43;;;;;;;27.90;12.23;;;;;;;23.38;42.59;100219.78;1812287;77;21295;-78
2022/05/23 08:42:38;;;;;;;27.25;13.13;;;;;;;23.37;42.51;100217.59;1816137;77;21493;-79
2022/05/23 08:45:14;;;;;;;23.90;11.95;;;;;;;23.36;42.53;100218.73;1805446;77;22049;-79
2022/05/23 08:48:01;;;;;;;32.73;10.48;;;;;;;23.36;42.47;100216.53;1828649;76;21040;-79
2022/05/23 08:50:48;;;;;;;18.80;5.15;;;;;;;23.35;42.46;100209.36;1817434;76;21056;-80
2022/05/23 08:53:46;;;;;;;14.05;3.37;;;;;;;23.35;42.12;100210.75;1827570;76;21075;-80
2022/05/23 08:56:21;;;;;;;12.25;6.53;;;;;;;23.33;41.58;100212.51;1801884;77;21016;-81
2022/05/23 08:58:52;;;;;;;22.32;6.20;;;;;;;23.33;41.71;100211.69;1828407;77;21124;-78
2022/05/23 09:01:30;;;;;;;21.80;5.28;;;;;;;23.33;41.71;100209.73;1827989;76;21122;-79
2022/05/23 09:04:17;;;;;;;20.85;4.97;;;;;;;23.34;41.66;100207.16;1825678;76;21444;-77
2022/05/23 09:06:52;;;;;;;9.78;4.08;;;;;;;23.36;41.64;100202.66;1827941;77;21064;-77
2022/05/23 09:09:21;;;;;;;13.83;3.65;;;;;;;23.35;41.55;100203.23;1829148;76;21099;-78
2022/05/23 09:11:54;;;;;;;12.98;3.70;;;;;;;23.35;41.43;100207.97;1824507;76;21729;-79
2022/05/23 09:14:21;;;;;;;9.55;3.90;;;;;;;23.34;41.35;100216.87;1824080;76;21033;-78
2022/05/23 09:16:53;;;;;;;8.20;4.03;;;;;;;23.32;41.32;100212.27;1838052;76;21180;-79
2022/05/23 09:19:34;;;;;;;8.30;4.47;;;;;;;23.33;41.31;100216.67;1773152;79;21381;-80
2022/05/23 09:22:13;;;;;;;11.08;6.62;;;;;;;23.33;41.29;100213.89;1835809;76;21426;-80
2022/05/23 09:24:59;;;;;;;11.55;6.42;;;;;;;23.33;41.19;100200.02;1753900;79;21209;-80
2022/05/23 09:28:01;;;;;;;17.10;6.97;;;;;;;23.33;41.11;100206.95;1762974;80;21060;-82
2022/05/23 09:30:28;;;;;;;8.68;6.12;;;;;;;23.32;41.06;100206.72;1778816;80;21132;-81
2022/05/23 09:33:08;;;;;;;12.10;6.55;;;;;;;23.32;41.03;100205.33;1770314;78;21703;-84
2022/05/23 09:35:51;;;;;;;12.43;6.05;;;;;;;23.33;41.00;100202.79;1824259;77;21562;-78
2022/05/23 09:38:26;;;;;;;12.85;5.78;;;;;;;23.34;41.32;100204.99;1820801;76;21175;-78
2022/05/23 09:40:53;;;;;;;9.70;5.83;;;;;;;23.36;41.43;100204.86;1853477;76;21318;-78
2022/05/23 09:49:19;;;;;;;13.80;5.03;;;;;;;23.42;41.22;100221.52;1772993;79;21066;-77
2022/05/23 09:52:19;;;;;;;12.10;5.00;;;;;;;23.42;41.13;100216.53;1772765;79;21010;-78
2022/05/23 09:54:54;;;;;;;14.65;4.87;;;;;;;23.42;41.07;100217.92;1825524;77;21017;-79
2022/05/23 09:57:28;;;;;;;17.85;4.50;;;;;;;23.39;41.03;100211.09;1799634;76;21131;-79
2022/05/23 10:00:25;;;;;;;13.03;2.80;;;;;;;23.38;41.04;100210.84;1747428;79;21043;-77
2022/05/23 10:02:56;;;;;;;9.58;2.98;;;;;;;23.37;41.05;100205.09;1829326;76;22203;-78
2022/05/23 10:05:34;;;;;;;21.62;3.70;;;;;;;23.38;41.11;100210.84;1796613;76;21030;-77
2022/05/23 10:08:04;;;;;;;12.05;3.30;;;;;;;23.38;41.15;100210.84;1820681;76;21045;-78
2022/05/23 10:10:34;;;;;;;6.92;2.90;;;;;;;23.39;41.20;100207.50;1815704;76;21100;-80
2022/05/23 10:13:30;;;;;;;10.13;2.80;;;;;;;23.38;41.36;100212.84;1839379;77;21042;-78
2022/05/23 10:16:00;;;;;;;10.88;3.37;;;;;;;23.40;41.41;100207.73;1781677;78;21047;-76
2022/05/23 10:18:35;;;;;;;12.35;3.40;;;;;;;23.40;41.50;100210.52;1820482;76;21274;-78
2022/05/23 10:21:02;;;;;;;10.38;3.15;;;;;;;23.40;41.51;100204.38;1828900;76;21075;-77
2022/05/23 10:23:33;;;;;;;13.30;3.08;;;;;;;23.40;41.50;100209.13;1764757;79;21288;-78
2022/05/23 10:26:20;;;;;;;10.50;3.20;;;;;;;23.40;41.52;100209.94;1841203;76;21032;-77
2022/05/23 10:29:06;;;;;;;8.58;3.10;;;;;;;23.40;41.49;100211.32;1829509;75;21064;-80
2022/05/23 10:32:01;;;;;;;9.48;3.08;;;;;;;23.40;41.46;100211.32;1768561;80;21042;-78
2022/05/23 10:34:48;;;;;;;7.30;2.67;;;;;;;23.41;41.40;100209.36;1837000;77;21525;-80
2022/05/23 10:37:19;;;;;;;7.00;3.12;;;;;;;23.40;41.41;100204.38;1828519;76;21049;-78
2022/05/23 10:42:42;;;;;;;7.97;3.45;;;;;;;23.40;41.59;100207.73;1836234;76;21111;-77
2022/05/23 10:45:23;;;;;;;11.45;3.52;;;;;;;23.42;41.61;100209.59;1763338;79;21813;-78
2022/05/23 10:48:20;;;;;;;10.03;3.92;;;;;;;23.42;41.60;100209.02;1826436;76;21073;-77
2022/05/23 10:51:24;;;;;;;10.40;3.50;;;;;;;23.41;41.58;100200.45;1829671;76;21026;-77
2022/05/23 10:54:30;;;;;;;14.30;2.72;;;;;;;23.41;41.58;100195.48;1773212;77;21177;-77
2022/05/23 10:57:20;;;;;;;13.38;2.40;;;;;;;23.41;41.68;100192.70;1836773;76;21049;-78
2022/05/23 11:00:12;;;;;;;11.30;2.40;;;;;;;23.41;41.88;100195.48;1819652;76;21940;-78
2022/05/23 11:03:00;;;;;;;14.23;2.58;;;;;;;23.41;42.16;100194.91;1828119;76;21135;-78
2022/05/23 11:05:59;;;;;;;22.32;3.15;;;;;;;23.44;42.37;100194.80;1830810;76;21972;-77
2022/05/23 11:08:52;;;;;;;19.32;3.30;;;;;;;23.43;42.43;100184.27;1818794;77;21016;-79
2022/05/23 11:11:31;;;;;;;21.65;3.80;;;;;;;23.43;42.50;100180.65;1827286;77;21092;-80
2022/05/23 11:14:11;;;;;;;15.15;4.45;;;;;;;23.42;42.60;100174.31;1826101;76;21772;-78
2022/05/23 11:17:01;;;;;;;16.33;4.13;;;;;;;23.42;42.66;100174.89;1841481;76;21052;-79
2022/05/23 11:19:42;;;;;;;11.53;3.52;;;;;;;23.43;42.72;100168.16;1842570;77;21012;-80
2022/05/23 11:22:20;;;;;;;15.43;5.15;;;;;;;23.44;42.92;100172.02;1824075;76;21048;-81
2022/05/23 11:25:01;;;;;;;16.75;6.12;;;;;;;23.44;42.93;100162.87;1818328;77;21107;-81
2022/05/23 11:35:55;;;;;;;17.10;6.15;;;;;;;23.45;42.95;100161.14;1770162;79;21611;-78
2022/05/23 11:38:21;;;;;;;15.05;7.97;;;;;;;23.47;42.97;100156.61;1789341;79;21088;-77
2022/05/23 11:41:29;;;;;;;19.10;8.28;;;;;;;23.48;42.98;100156.84;1748948;80;21499;-78
2022/05/23 11:43:55;;;;;;;34.40;9.88;;;;;;;23.49;42.96;100157.08;1822322;76;21013;-79
2022/05/23 11:46:28;;;;;;;19.87;9.28;;;;;;;23.46;42.91;100155.83;1838831;75;21056;-80
2022/05/23 11:48:58;;;;;;;15.18;8.93;;;;;;;23.46;42.85;100150.27;1760140;79;21533;-80
2022/05/23 11:51:36;;;;;;;16.67;9.98;;;;;;;23.46;42.86;100153.05;1778189;79;21044;-78
2022/05/23 11:54:11;;;;;;;19.40;7.50;;;;;;;23.45;42.86;100155.59;1768168;79;21876;-78
2022/05/23 11:57:04;;;;;;;24.98;8.13;;;;;;;23.44;42.85;100146.22;1784987;79;21033;-79
2022/05/23 11:59:36;;;;;;;17.30;4.67;;;;;;;23.45;42.93;100150.04;1759665;79;21151;-80
2022/05/23 12:02:14;;;;;;;22.65;4.30;;;;;;;23.46;43.08;100145.30;1793134;78;21072;-80
2022/05/23 12:04:55;;;;;;;22.30;5.35;;;;;;;23.46;43.05;100140.55;1771867;80;21113;-81
2022/05/23 12:07:46;;;;;;;11.18;4.87;;;;;;;23.48;43.02;100142.95;1785781;79;22222;-81
2022/05/23 12:10:28;;;;;;;17.23;5.72;;;;;;;23.48;43.04;100141.00;1785678;78;21084;-78
2022/05/23 12:13:00;;;;;;;18.65;5.53;;;;;;;23.48;43.05;100139.61;1795015;78;21069;-81
2022/05/23 12:15:48;;;;;;;13.70;5.47;;;;;;;23.49;43.14;100141.80;1772717;79;20918;-78
2022/05/23 12:18:34;;;;;;;10.93;4.87;;;;;;;23.51;43.21;100145.83;1783457;78;20916;-78
2022/05/23 12:21:07;;;;;;;8.20;5.10;;;;;;;23.53;43.31;100127.45;1776413;79;21744;-77
2022/05/23 12:23:40;;;;;;;14.33;4.80;;;;;;;23.53;43.35;100125.48;1728024;79;21398;-79
2022/05/23 12:26:15;;;;;;;11.22;4.78;;;;;;;23.54;43.40;100125.71;1775102;79;21046;-79
2022/05/23 12:29:07;;;;;;;12.75;5.08;;;;;;;23.56;43.44;100130.89;1785815;79;21021;-76
2022/05/23 12:31:38;;;;;;;13.72;5.67;;;;;;;23.55;43.46;100125.92;1796433;78;21544;-77
2022/05/23 12:34:08;;;;;;;14.73;5.90;;;;;;;23.56;43.45;100132.28;1778969;79;22031;-76
2022/05/23 12:36:42;;;;;;;12.93;6.05;;;;;;;23.57;43.45;100127.77;1788507;78;21426;-78
2022/05/23 12:39:49;;;;;;;13.32;6.10;;;;;;;23.58;43.45;100131.36;1791804;78;21554;-81
2022/05/23 12:43:08;;;;;;;9.08;5.30;;;;;;;23.59;43.48;100130.20;1763861;79;21700;-80
2022/05/23 12:46:15;;;;;;;10.60;5.25;;;;;;;23.59;43.44;100113.55;1844305;76;21095;-82